Time;durP1;ratioP1;P1;durP2;ratioP2;P2;SDS_P1;SDS_P2;PMS_P1;PMS_P2;Temp;Humidity;BMP_temperature;BMP_pressure;BME280_temperature;BME280_humidity;BME280_pressure;Samples;Min_cycle;Max_cycle;Signal;HPM_P1;HPM_P2
2021/04/21 00:01:53;;;;;;;8.45;4.50;;;13.70;99.90;;;;;;5090150;28;20692;-68
2021/04/21 00:04:20;;;;;;;6.57;5.40;;;13.60;99.90;;;;;;5089663;28;20247;-69
2021/04/21 00:06:48;;;;;;;5.07;4.55;;;13.60;99.90;;;;;;5090178;28;20202;-69
2021/04/21 00:09:18;;;;;;;6.70;4.45;;;13.60;99.90;;;;;;5089979;28;20236;-69
2021/04/21 00:11:46;;;;;;;8.57;5.15;;;13.60;99.90;;;;;;5089834;28;20218;-69
2021/04/21 00:14:17;;;;;;;11.57;4.90;;;13.60;99.90;;;;;;5089711;28;20206;-69
2021/04/21 00:16:45;;;;;;;9.85;5.90;;;13.60;99.90;;;;;;5089887;28;20202;-70
2021/04/21 00:19:15;;;;;;;8.00;4.20;;;13.60;99.90;;;;;;5089933;28;20220;-69
2021/04/21 00:21:44;;;;;;;8.13;4.78;;;13.60;99.90;;;;;;5089770;28;20624;-70
2021/04/21 00:24:12;;;;;;;8.43;5.37;;;13.50;99.90;;;;;;5090688;28;20201;-70
2021/04/21 00:26:40;;;;;;;4.95;4.55;;;13.40;99.90;;;;;;5093664;28;20201;-70
2021/04/21 00:29:10;;;;;;;5.82;4.47;;;13.40;99.90;;;;;;5093578;28;20213;-70
2021/04/21 00:31:38;;;;;;;6.78;4.40;;;13.40;99.90;;;;;;5093542;28;20229;-70
2021/04/21 00:34:05;;;;;;;4.15;3.75;;;13.40;99.90;;;;;;5093675;28;20206;-69
2021/04/21 00:36:35;;;;;;;9.32;4.57;;;13.40;99.90;;;;;;5093958;28;20206;-70
2021/04/21 00:39:04;;;;;;;5.93;4.93;;;13.30;99.90;;;;;;5093147;28;20224;-70
2021/04/21 00:41:40;;;;;;;3.67;3.38;;;13.40;99.90;;;;;;5093741;28;20590;-70
2021/04/21 00:44:24;;;;;;;5.50;4.35;;;13.40;99.90;;;;;;5093071;28;20567;-69
2021/04/21 00:46:57;;;;;;;11.32;4.50;;;13.40;99.90;;;;;;5090828;28;20209;-69
2021/04/21 00:49:29;;;;;;;5.28;4.15;;;13.40;99.90;;;;;;5088264;28;20692;-68
2021/04/21 00:51:59;;;;;;;6.20;4.97;;;13.40;99.90;;;;;;5093505;28;20225;-70
2021/04/21 00:54:32;;;;;;;8.07;4.78;;;13.40;99.90;;;;;;5093773;28;20205;-70
2021/04/21 00:57:09;;;;;;;6.90;4.17;;;13.40;99.90;;;;;;5093365;28;20209;-70
2021/04/21 00:59:51;;;;;;;9.27;4.63;;;13.30;99.90;;;;;;5092965;28;20201;-70
2021/04/21 01:02:22;;;;;;;4.75;4.35;;;13.30;99.90;;;;;;5092865;28;20618;-69
2021/04/21 01:04:50;;;;;;;4.47;4.15;;;13.30;99.90;;;;;;5092979;28;20205;-70
2021/04/21 01:07:18;;;;;;;5.68;4.03;;;13.30;99.90;;;;;;5092941;28;20588;-69
2021/04/21 01:09:47;;;;;;;12.10;5.28;;;13.30;99.90;;;;;;5093010;28;20201;-69
2021/04/21 01:12:16;;;;;;;6.00;4.25;;;13.30;99.90;;;;;;5092812;28;20240;-70
2021/04/21 01:14:48;;;;;;;9.98;4.03;;;13.20;99.90;;;;;;5092687;28;20574;-69
2021/04/21 01:17:17;;;;;;;6.53;3.78;;;13.20;99.90;;;;;;5092611;28;20201;-68
2021/04/21 01:20:05;;;;;;;7.35;3.60;;;13.20;99.90;;;;;;5092841;28;20201;-71
2021/04/21 01:23:06;;;;;;;7.53;5.03;;;13.30;99.90;;;;;;5092519;28;20677;-70
2021/04/21 01:25:43;;;;;;;5.60;4.13;;;13.30;99.90;;;;;;5066401;28;20209;-70
2021/04/21 01:28:12;;;;;;;5.20;4.20;;;13.20;99.90;;;;;;5092075;28;20212;-71
2021/04/21 01:30:43;;;;;;;6.05;3.65;;;13.20;99.90;;;;;;5092790;28;20243;-71
2021/04/21 01:33:13;;;;;;;5.30;4.60;;;13.10;99.90;;;;;;5092084;28;20680;-71
2021/04/21 01:35:44;;;;;;;5.20;4.50;;;13.10;99.90;;;;;;5091367;28;20205;-71
2021/04/21 01:38:13;;;;;;;6.55;3.72;;;13.10;99.90;;;;;;5092260;28;20288;-70
2021/04/21 01:40:44;;;;;;;4.47;4.07;;;13.10;99.90;;;;;;5092401;28;20205;-70
2021/04/21 01:43:18;;;;;;;7.03;3.87;;;13.10;99.90;;;;;;5092040;28;20288;-69
2021/04/21 01:45:45;;;;;;;4.90;4.07;;;13.20;99.90;;;;;;5092333;28;20202;-69
2021/04/21 01:48:18;;;;;;;7.57;3.50;;;13.10;99.90;;;;;;5091906;28;20263;-71
2021/04/21 01:50:45;;;;;;;4.83;4.00;;;13.00;99.90;;;;;;5091814;28;20193;-71
2021/04/21 01:53:23;;;;;;;7.77;4.70;;;13.00;99.90;;;;;;5092047;28;20201;-71
2021/04/21 01:56:00;;;;;;;10.87;5.07;;;13.00;99.90;;;;;;5089250;28;20283;-73
2021/04/21 01:58:49;;;;;;;5.90;3.40;;;12.90;99.90;;;;;;5073663;28;20214;-72
2021/04/21 02:01:31;;;;;;;6.40;4.03;;;12.90;99.90;;;;;;5091376;28;20696;-70
2021/04/21 02:04:04;;;;;;;4.00;3.70;;;12.80;99.90;;;;;;5087429;28;20212;-71
2021/04/21 02:06:49;;;;;;;6.97;4.23;;;12.80;99.90;;;;;;5091903;28;20204;-71
2021/04/21 02:09:58;;;;;;;5.53;4.37;;;12.90;99.90;;;;;;5091272;28;20231;-71
2021/04/21 02:12:51;;;;;;;6.20;4.10;;;12.90;99.90;;;;;;5086397;28;20324;-73
2021/04/21 02:15:26;;;;;;;9.25;5.22;;;12.80;99.90;;;;;;5089098;28;20214;-68
2021/04/21 02:18:02;;;;;;;7.05;4.53;;;12.80;99.90;;;;;;5091800;28;20279;-69
2021/04/21 02:20:34;;;;;;;6.47;4.67;;;12.70;99.90;;;;;;5091993;28;20213;-70
2021/04/21 02:23:08;;;;;;;4.45;3.78;;;12.70;99.90;;;;;;5091107;28;20209;-70
2021/04/21 02:25:55;;;;;;;4.33;3.93;;;12.70;99.90;;;;;;5091391;28;20209;-70
2021/04/21 02:28:28;;;;;;;6.43;4.57;;;12.70;99.90;;;;;;5091033;28;20210;-70
2021/04/21 02:31:05;;;;;;;5.70;4.43;;;12.60;99.90;;;;;;5091902;28;20300;-70
2021/04/21 02:33:39;;;;;;;10.67;5.20;;;12.60;99.90;;;;;;5091553;28;20201;-70
2021/04/21 02:36:10;;;;;;;4.93;4.37;;;12.60;99.90;;;;;;5091034;28;20240;-70
2021/04/21 02:38:43;;;;;;;11.13;5.50;;;12.60;99.90;;;;;;5090998;28;20201;-71
2021/04/21 02:41:13;;;;;;;8.90;5.40;;;12.50;99.90;;;;;;5090871;28;20213;-70
2021/04/21 02:43:56;;;;;;;5.23;4.73;;;12.50;99.90;;;;;;5091151;28;20205;-70
2021/04/21 02:46:30;;;;;;;6.80;4.53;;;12.50;99.90;;;;;;5090876;28;20702;-70
2021/04/21 02:49:17;;;;;;;6.43;4.30;;;12.60;99.90;;;;;;5090977;28;20209;-70
2021/04/21 02:51:51;;;;;;;15.27;5.27;;;12.50;99.90;;;;;;5090447;28;20700;-71
2021/04/21 02:54:23;;;;;;;8.03;4.93;;;12.50;99.90;;;;;;5089184;28;20547;-71
2021/04/21 02:56:57;;;;;;;6.83;4.37;;;12.50;99.90;;;;;;5089336;28;20217;-72
2021/04/21 02:59:32;;;;;;;6.90;4.83;;;12.50;99.90;;;;;;5090933;28;20207;-71
2021/04/21 03:02:06;;;;;;;10.63;5.00;;;12.60;99.90;;;;;;5090929;28;20204;-70
2021/04/21 03:04:37;;;;;;;11.57;4.87;;;12.60;99.90;;;;;;5090884;28;20280;-70
2021/04/21 03:07:09;;;;;;;8.10;4.63;;;12.60;99.90;;;;;;5090651;28;20201;-69
2021/04/21 03:09:41;;;;;;;6.00;4.30;;;12.60;99.90;;;;;;5090571;28;20262;-69
2021/04/21 03:12:10;;;;;;;5.83;4.60;;;12.60;99.90;;;;;;5090557;28;20217;-71
2021/04/21 03:14:41;;;;;;;8.87;4.13;;;12.50;99.90;;;;;;5090783;28;20209;-70
2021/04/21 03:17:10;;;;;;;5.50;3.90;;;12.50;99.90;;;;;;5090286;28;20201;-70
2021/04/21 03:19:42;;;;;;;7.90;4.30;;;12.30;99.90;;;;;;5090495;28;20237;-70
2021/04/21 03:22:14;;;;;;;6.83;5.07;;;12.30;99.90;;;;;;5090430;28;20205;-70
2021/04/21 03:24:45;;;;;;;8.17;5.23;;;12.30;99.90;;;;;;5090477;28;20209;-70
2021/04/21 03:27:13;;;;;;;10.13;5.53;;;12.30;99.90;;;;;;5090466;28;20292;-71
2021/04/21 03:29:43;;;;;;;6.47;5.20;;;12.40;99.90;;;;;;5090248;28;20669;-71
2021/04/21 03:32:14;;;;;;;7.57;5.47;;;12.30;99.90;;;;;;5090174;28;20229;-70
2021/04/21 03:34:42;;;;;;;10.30;6.23;;;12.40;99.90;;;;;;5090441;28;20209;-71
2021/04/21 03:37:21;;;;;;;7.67;5.17;;;12.30;99.90;;;;;;5090191;28;20209;-70
2021/04/21 03:39:49;;;;;;;7.43;5.40;;;12.20;99.90;;;;;;5090253;28;20285;-70
2021/04/21 03:42:16;;;;;;;10.03;5.70;;;12.20;99.90;;;;;;5090308;28;20206;-70
2021/04/21 03:44:43;;;;;;;15.10;6.17;;;12.30;99.90;;;;;;5090281;28;20691;-70
2021/04/21 03:47:11;;;;;;;7.30;5.63;;;12.30;99.90;;;;;;5089737;28;20631;-70
2021/04/21 03:49:38;;;;;;;9.40;5.57;;;12.30;99.90;;;;;;5090642;28;20209;-70
2021/04/21 03:52:07;;;;;;;9.43;5.77;;;12.20;99.90;;;;;;5089917;28;20252;-71
2021/04/21 03:54:34;;;;;;;8.00;6.30;;;12.20;99.90;;;;;;5090274;28;20209;-71
2021/04/21 03:57:03;;;;;;;10.80;6.13;;;12.20;99.90;;;;;;5089729;28;20216;-71
2021/04/21 03:59:31;;;;;;;11.23;6.17;;;12.20;99.90;;;;;;5091366;28;20201;-70
2021/04/21 04:02:00;;;;;;;15.03;6.30;;;12.10;99.90;;;;;;5094872;28;20209;-71
2021/04/21 04:04:31;;;;;;;12.00;6.23;;;12.10;99.90;;;;;;5094400;28;20231;-70
2021/04/21 04:07:04;;;;;;;9.00;5.67;;;12.00;99.90;;;;;;5094753;28;20201;-71
2021/04/21 04:09:35;;;;;;;10.03;7.03;;;12.00;99.90;;;;;;5094189;28;20212;-70
2021/04/21 04:12:05;;;;;;;9.43;6.23;;;12.00;99.90;;;;;;5093947;28;20235;-70
2021/04/21 04:14:33;;;;;;;11.07;6.40;;;12.00;99.90;;;;;;5094412;28;20198;-71
2021/04/21 04:17:03;;;;;;;7.00;5.93;;;11.90;99.90;;;;;;5094007;28;20202;-71
2021/04/21 04:19:33;;;;;;;7.30;6.57;;;12.00;99.90;;;;;;5093997;28;20292;-71
2021/04/21 04:22:05;;;;;;;12.23;6.70;;;12.00;99.90;;;;;;5094096;28;20201;-71
2021/04/21 04:24:40;;;;;;;9.70;6.40;;;11.90;99.90;;;;;;5093693;28;20213;-72
2021/04/21 04:27:13;;;;;;;8.23;5.77;;;11.80;99.90;;;;;;5093729;28;20205;-71
2021/04/21 04:29:42;;;;;;;6.67;5.97;;;11.90;99.90;;;;;;5093806;28;20312;-72
2021/04/21 04:32:12;;;;;;;7.90;6.70;;;11.80;99.90;;;;;;5093365;28;20253;-71
2021/04/21 04:34:43;;;;;;;7.60;5.67;;;11.80;99.90;;;;;;5093503;28;20669;-71
2021/04/21 04:37:11;;;;;;;9.83;6.73;;;11.80;99.90;;;;;;5093142;28;20205;-71
2021/04/21 04:39:39;;;;;;;7.47;6.63;;;11.80;99.90;;;;;;5093670;28;20209;-71
2021/04/21 04:42:07;;;;;;;7.60;6.90;;;11.70;99.90;;;;;;5093027;28;20220;-71
2021/04/21 04:44:36;;;;;;;14.80;7.17;;;11.70;99.90;;;;;;5093859;28;20212;-71
2021/04/21 04:47:05;;;;;;;10.63;6.57;;;11.70;99.90;;;;;;5092853;28;20227;-71
2021/04/21 04:49:38;;;;;;;12.17;7.07;;;11.60;99.90;;;;;;5093343;28;20675;-71
2021/04/21 04:52:08;;;;;;;8.60;7.60;;;11.50;99.90;;;;;;5092423;28;20677;-71
2021/04/21 04:54:35;;;;;;;8.60;6.90;;;11.50;99.90;;;;;;5093345;28;20248;-71
2021/04/21 04:57:03;;;;;;;7.87;6.67;;;11.50;99.90;;;;;;5092636;28;20206;-71
2021/04/21 04:59:31;;;;;;;12.87;7.43;;;11.50;99.90;;;;;;5093158;28;20202;-71
2021/04/21 05:01:59;;;;;;;8.13;6.30;;;11.40;99.90;;;;;;5093303;28;20210;-71
2021/04/21 05:04:32;;;;;;;11.23;7.83;;;11.40;99.90;;;;;;5093272;28;20209;-72
2021/04/21 05:07:04;;;;;;;7.17;6.47;;;11.40;99.90;;;;;;5093121;28;20201;-72
2021/04/21 05:09:34;;;;;;;12.03;8.00;;;11.40;99.90;;;;;;5093041;28;20202;-71
2021/04/21 05:12:03;;;;;;;7.80;7.00;;;11.40;99.90;;;;;;5092707;28;20224;-71
2021/04/21 05:14:32;;;;;;;13.00;8.57;;;11.50;99.90;;;;;;5092660;28;20292;-71
2021/04/21 05:17:34;;;;;;;18.83;7.10;;;11.50;99.90;;;;;;5093565;28;20198;-71
2021/04/21 05:20:44;;;;;;;6.97;6.27;;;11.50;99.90;;;;;;5092279;28;20593;-71
2021/04/21 05:23:47;;;;;;;10.30;7.93;;;11.50;99.90;;;;;;5092497;28;20368;-71
2021/04/21 05:26:58;;;;;;;10.50;7.10;;;11.60;99.90;;;;;;5092379;28;20624;-71
2021/04/21 05:30:02;;;;;;;11.83;7.77;;;11.60;99.90;;;;;;5044308;28;20209;-71
2021/04/21 05:32:55;;;;;;;10.10;7.57;;;11.70;99.90;;;;;;5092633;28;20609;-71
2021/04/21 05:36:18;;;;;;;13.03;8.10;;;11.70;99.90;;;;;;5092187;28;20247;-71
2021/04/21 05:39:31;;;;;;;9.17;7.00;;;11.80;99.90;;;;;;5092705;28;20206;-71
2021/04/21 05:42:31;;;;;;;8.07;7.10;;;11.80;99.90;;;;;;5092437;28;20198;-70
2021/04/21 05:45:30;;;;;;;9.00;7.50;;;11.90;99.90;;;;;;5092667;28;20220;-71
2021/04/21 05:48:27;;;;;;;12.60;7.87;;;11.90;99.90;;;;;;5090691;28;20316;-70
2021/04/21 05:51:36;;;;;;;8.97;6.93;;;11.90;99.90;;;;;;5092710;28;20251;-70
2021/04/21 05:54:36;;;;;;;8.27;6.87;;;12.00;99.90;;;;;;5091922;28;20201;-71
2021/04/21 05:57:23;;;;;;;10.93;6.50;;;12.10;99.90;;;;;;5091816;28;20279;-70
2021/04/21 06:00:28;;;;;;;9.60;7.83;;;12.10;99.90;;;;;;5068018;28;20296;-72
2021/04/21 06:02:55;;;;;;;13.57;8.97;;;12.10;99.90;;;;;;5092455;28;20259;-73
2021/04/21 06:05:21;;;;;;;9.23;6.90;;;12.10;99.90;;;;;;5091735;28;20220;-74
2021/04/21 06:07:48;;;;;;;12.00;7.17;;;12.30;99.90;;;;;;5092016;28;20201;-75
2021/04/21 06:10:28;;;;;;;9.17;6.77;;;12.30;99.90;;;;;;5091541;28;20255;-73
2021/04/21 06:12:58;;;;;;;10.90;6.93;;;12.40;99.90;;;;;;5091810;28;20278;-76
2021/04/21 06:15:29;;;;;;;12.97;8.33;;;12.50;99.90;;;;;;5072000;28;20298;-72
2021/04/21 06:17:58;;;;;;;7.80;7.07;;;12.70;99.90;;;;;;5065595;28;20198;-70
2021/04/21 06:20:33;;;;;;;10.33;6.77;;;12.80;99.90;;;;;;5074763;28;20277;-72
2021/04/21 06:23:01;;;;;;;8.27;6.73;;;12.80;99.90;;;;;;5087719;28;20205;-73
2021/04/21 06:25:28;;;;;;;9.07;6.43;;;12.90;99.90;;;;;;5084323;28;20201;-71
2021/04/21 06:28:10;;;;;;;11.20;6.77;;;12.90;99.90;;;;;;5091362;28;20201;-71
2021/04/21 06:30:38;;;;;;;7.40;6.80;;;13.00;99.90;;;;;;5078912;28;20206;-71
2021/04/21 06:33:07;;;;;;;7.63;6.53;;;13.10;99.90;;;;;;5086128;28;20611;-72
2021/04/21 06:35:33;;;;;;;10.93;6.90;;;13.20;99.90;;;;;;5091343;28;20212;-71
2021/04/21 06:38:01;;;;;;;9.97;7.50;;;13.30;99.90;;;;;;5091311;28;20229;-72
2021/04/21 06:40:28;;;;;;;9.60;6.77;;;13.30;99.90;;;;;;5092000;28;20205;-72
2021/04/21 06:42:55;;;;;;;8.17;6.53;;;13.20;99.90;;;;;;5091742;28;20673;-71
2021/04/21 06:45:26;;;;;;;9.83;7.20;;;13.10;99.90;;;;;;5090815;28;20209;-72
2021/04/21 06:47:54;;;;;;;10.03;6.40;;;13.10;99.90;;;;;;5091074;28;20221;-72
2021/04/21 06:50:27;;;;;;;11.40;6.63;;;13.20;99.90;;;;;;5090439;28;20212;-73
2021/04/21 06:52:59;;;;;;;10.73;7.97;;;13.30;99.90;;;;;;5091349;28;20236;-71
2021/04/21 06:55:26;;;;;;;9.37;6.43;;;13.30;99.90;;;;;;5090864;28;20704;-72
2021/04/21 06:57:53;;;;;;;12.03;7.03;;;13.40;99.90;;;;;;5085284;28;20733;-72
2021/04/21 07:00:22;;;;;;;10.17;6.27;;;13.50;99.90;;;;;;5069644;28;20213;-72
2021/04/21 07:02:51;;;;;;;6.90;6.25;;;13.40;99.90;;;;;;5083405;28;20234;-71
2021/04/21 07:05:34;;;;;;;11.20;7.00;;;13.50;99.90;;;;;;5064321;28;20600;-72
2021/04/21 07:08:05;;;;;;;10.60;6.20;;;13.80;99.90;;;;;;5079759;28;20668;-72
2021/04/21 07:10:34;;;;;;;9.33;6.17;;;14.00;99.90;;;;;;5091183;28;20209;-73
2021/04/21 07:13:02;;;;;;;10.10;6.90;;;14.20;99.90;;;;;;5090034;28;20221;-73
2021/04/21 07:15:30;;;;;;;12.00;7.35;;;14.30;99.90;;;;;;5069970;28;20229;-70
2021/04/21 07:17:57;;;;;;;7.88;5.68;;;14.40;99.90;;;;;;5070478;28;20206;-73
2021/04/21 07:20:24;;;;;;;6.70;6.10;;;14.60;99.90;;;;;;5074804;28;20334;-72
2021/04/21 07:22:52;;;;;;;10.45;6.07;;;14.60;99.90;;;;;;5074472;28;20285;-71
2021/04/21 07:25:19;;;;;;;10.60;5.97;;;14.70;99.90;;;;;;5077701;28;20208;-73
2021/04/21 07:27:52;;;;;;;5.78;5.15;;;14.80;99.90;;;;;;5065228;28;20206;-71
2021/04/21 07:30:27;;;;;;;6.88;5.55;;;15.00;99.90;;;;;;5070164;28;20205;-69
2021/04/21 07:32:53;;;;;;;9.60;5.07;;;14.80;99.90;;;;;;5078923;28;20705;-68
2021/04/21 07:35:22;;;;;;;6.07;5.13;;;14.90;99.90;;;;;;5084051;28;20209;-74
2021/04/21 07:37:50;;;;;;;6.57;5.80;;;14.90;99.90;;;;;;5072502;28;20579;-73
2021/04/21 07:40:26;;;;;;;8.13;6.07;;;15.00;99.90;;;;;;5077525;28;20217;-70
2021/04/21 07:43:06;;;;;;;7.75;5.22;;;14.90;99.90;;;;;;5070253;28;20198;-71
2021/04/21 07:45:48;;;;;;;5.30;4.80;;;15.00;99.90;;;;;;5051043;28;20225;-69
2021/04/21 07:48:43;;;;;;;6.47;4.80;;;15.10;99.90;;;;;;5064966;28;20698;-71
2021/04/21 07:51:33;;;;;;;6.90;4.90;;;15.20;99.90;;;;;;5059671;28;20678;-70
2021/04/21 07:54:02;;;;;;;7.50;5.65;;;15.30;99.90;;;;;;5069047;28;20202;-71
2021/04/21 07:56:35;;;;;;;7.38;5.63;;;15.50;99.90;;;;;;5080216;28;20313;-69
2021/04/21 07:59:16;;;;;;;4.93;4.43;;;15.70;99.90;;;;;;5088186;28;20205;-70
2021/04/21 08:01:42;;;;;;;9.48;5.65;;;15.90;99.90;;;;;;5079748;28;20205;-70
2021/04/21 08:04:24;;;;;;;52.22;13.60;;;15.90;99.90;;;;;;5072977;28;20225;-69
2021/04/21 08:06:53;;;;;;;7.47;6.60;;;15.70;99.90;;;;;;5085992;28;20206;-68
2021/04/21 08:09:21;;;;;;;19.55;8.00;;;15.50;99.90;;;;;;5082561;28;20212;-70
2021/04/21 08:12:07;;;;;;;13.50;6.82;;;15.30;99.90;;;;;;5087116;28;20447;-69
2021/04/21 08:14:38;;;;;;;17.20;6.78;;;15.40;99.90;;;;;;5081570;28;20338;-69
2021/04/21 08:17:05;;;;;;;8.77;6.15;;;15.20;99.90;;;;;;5080004;28;20202;-68
2021/04/21 08:19:36;;;;;;;12.45;6.70;;;15.20;99.90;;;;;;5082057;28;20677;-68
2021/04/21 08:22:03;;;;;;;14.45;6.60;;;15.20;99.90;;;;;;5086214;28;20198;-70
2021/04/21 08:24:41;;;;;;;9.57;5.70;;;15.50;99.90;;;;;;5081624;28;20211;-70
2021/04/21 08:27:11;;;;;;;8.52;5.40;;;16.10;99.90;;;;;;5084757;28;20201;-72
2021/04/21 08:29:37;;;;;;;6.90;5.88;;;15.90;99.90;;;;;;5073403;28;20209;-70
2021/04/21 08:32:05;;;;;;;11.02;5.90;;;16.20;99.90;;;;;;5076604;28;20787;-70
2021/04/21 08:34:32;;;;;;;13.60;5.63;;;16.50;99.90;;;;;;5077757;28;20225;-70
2021/04/21 08:36:58;;;;;;;7.90;4.85;;;16.00;99.90;;;;;;5083271;28;20198;-70
2021/04/21 08:39:25;;;;;;;7.40;5.55;;;15.50;99.90;;;;;;5078164;28;20202;-70
2021/04/21 08:41:57;;;;;;;5.70;5.07;;;15.40;99.90;;;;;;5080276;28;20205;-70
2021/04/21 08:44:27;;;;;;;5.72;5.22;;;15.30;99.90;;;;;;5076666;28;20696;-71
2021/04/21 08:46:54;;;;;;;6.25;5.03;;;15.50;99.90;;;;;;5081921;28;20202;-70
2021/04/21 08:49:23;;;;;;;11.48;7.43;;;15.60;99.90;;;;;;5071966;28;20756;-70
2021/04/21 08:51:53;;;;;;;11.38;5.28;;;15.80;99.90;;;;;;5076239;28;20265;-71
2021/04/21 08:54:23;;;;;;;6.65;6.05;;;15.90;99.90;;;;;;5079076;28;20207;-71
2021/04/21 08:56:52;;;;;;;5.32;4.80;;;16.20;99.90;;;;;;5086985;28;20624;-70
2021/04/21 08:59:19;;;;;;;6.45;5.10;;;16.20;99.90;;;;;;5091838;28;20646;-69
2021/04/21 09:01:47;;;;;;;8.50;5.72;;;16.10;99.90;;;;;;5092123;28;20214;-70
2021/04/21 09:04:15;;;;;;;6.07;5.28;;;15.90;99.90;;;;;;5089736;28;20286;-70
2021/04/21 09:06:42;;;;;;;6.68;5.90;;;15.90;99.90;;;;;;5090370;28;20292;-70
2021/04/21 09:09:10;;;;;;;6.40;4.93;;;16.10;99.90;;;;;;5073364;28;20206;-70
2021/04/21 09:11:36;;;;;;;7.55;5.38;;;16.20;99.90;;;;;;5084883;28;20201;-71
2021/04/21 09:14:04;;;;;;;8.45;5.40;;;16.20;99.90;;;;;;5062929;28;20207;-72
2021/04/21 09:16:30;;;;;;;5.43;4.80;;;16.20;99.90;;;;;;5074750;28;20206;-72
2021/04/21 09:18:58;;;;;;;8.20;4.90;;;16.20;99.90;;;;;;5074119;28;20202;-72
2021/04/21 09:21:26;;;;;;;4.93;4.45;;;16.40;99.90;;;;;;5073386;28;20206;-72
2021/04/21 09:23:53;;;;;;;6.90;5.10;;;16.40;99.90;;;;;;5072747;28;20700;-71
2021/04/21 09:26:22;;;;;;;8.35;4.63;;;16.40;99.90;;;;;;5063901;28;20736;-70
2021/04/21 09:28:51;;;;;;;6.60;4.40;;;16.60;99.90;;;;;;5092254;28;20206;-71
2021/04/21 09:31:19;;;;;;;5.30;4.80;;;16.90;99.90;;;;;;5090049;28;20206;-70
2021/04/21 09:33:47;;;;;;;4.68;4.18;;;16.80;99.90;;;;;;5091348;28;20233;-74
2021/04/21 09:36:32;;;;;;;5.50;4.50;;;17.50;99.90;;;;;;5088473;28;20297;-72
2021/04/21 09:39:09;;;;;;;5.78;4.90;;;18.20;99.90;;;;;;5070801;28;20674;-72
2021/04/21 09:41:36;;;;;;;5.00;4.50;;;18.60;99.90;;;;;;5077972;28;20213;-73
2021/04/21 09:44:17;;;;;;;4.93;4.43;;;19.20;99.90;;;;;;5077124;28;20212;-72
2021/04/21 09:46:47;;;;;;;7.05;4.43;;;18.00;99.90;;;;;;5080428;28;20768;-72
2021/04/21 09:49:34;;;;;;;4.80;4.03;;;17.60;99.90;;;;;;5080010;28;20217;-72
2021/04/21 09:52:23;;;;;;;4.85;4.43;;;17.40;99.90;;;;;;5079930;28;20233;-72
2021/04/21 09:54:51;;;;;;;6.40;4.55;;;17.20;99.90;;;;;;5082428;28;20206;-72
2021/04/21 09:57:19;;;;;;;7.43;4.72;;;17.10;99.90;;;;;;5088712;28;20213;-72
2021/04/21 09:59:55;;;;;;;4.57;4.18;;;19.00;99.90;;;;;;5090806;28;20231;-72
2021/04/21 10:02:33;;;;;;;4.82;4.38;;;20.00;99.90;;;;;;5086637;28;20308;-73
2021/04/21 10:05:25;;;;;;;5.43;3.88;;;21.30;99.90;;;;;;5090121;28;20267;-75
2021/04/21 10:08:15;;;;;;;4.85;3.88;;;22.60;99.90;;;;;;5087120;28;20226;-74
2021/04/21 10:10:44;;;;;;;3.58;3.28;;;20.00;99.90;;;;;;5076681;28;20206;-70
2021/04/21 10:13:16;;;;;;;5.07;4.18;;;21.40;99.90;;;;;;5077348;28;20712;-69
2021/04/21 10:15:43;;;;;;;4.78;4.15;;;20.30;99.90;;;;;;5080875;28;20725;-69
2021/04/21 10:18:13;;;;;;;4.45;4.03;;;21.20;99.90;;;;;;5085976;28;20241;-69
2021/04/21 10:20:40;;;;;;;7.90;4.03;;;20.40;99.90;;;;;;5077488;28;20289;-68
2021/04/21 10:23:07;;;;;;;3.72;3.15;;;21.30;99.90;;;;;;5079325;28;20202;-71
2021/04/21 10:25:35;;;;;;;4.50;4.07;;;23.10;99.90;;;;;;5067722;28;20261;-69
2021/04/21 10:28:03;;;;;;;4.13;3.72;;;19.80;99.90;;;;;;5078136;28;20700;-69
2021/04/21 10:30:30;;;;;;;3.40;3.15;;;20.40;99.90;;;;;;5085322;28;20557;-69
2021/04/21 10:32:56;;;;;;;6.18;3.92;;;20.40;99.90;;;;;;5079783;28;20230;-68
2021/04/21 10:35:23;;;;;;;5.60;4.70;;;19.90;99.90;;;;;;5066636;28;20213;-68
2021/04/21 10:37:50;;;;;;;6.28;3.95;;;19.30;99.90;;;;;;5078119;28;20209;-69
2021/04/21 10:40:25;;;;;;;5.68;3.30;;;19.30;99.90;;;;;;5083272;28;20217;-69
2021/04/21 10:42:55;;;;;;;6.35;4.00;;;19.20;99.90;;;;;;5080871;28;20571;-69
2021/04/21 10:45:25;;;;;;;6.47;3.63;;;18.90;99.90;;;;;;5080750;28;20255;-68
2021/04/21 10:47:53;;;;;;;5.00;3.45;;;18.40;99.90;;;;;;5074509;28;20304;-69
2021/04/21 10:50:38;;;;;;;3.83;3.53;;;18.00;99.90;;;;;;5082358;28;20201;-69
2021/04/21 10:53:05;;;;;;;4.07;3.22;;;18.80;99.90;;;;;;5079696;28;20234;-69
2021/04/21 10:55:37;;;;;;;5.72;3.33;;;19.00;99.90;;;;;;5083021;28;20201;-70
2021/04/21 10:58:08;;;;;;;8.13;4.00;;;19.00;99.90;;;;;;5090664;28;20197;-69
2021/04/21 11:00:37;;;;;;;4.05;3.45;;;18.80;99.90;;;;;;5090794;28;20665;-69
2021/04/21 11:03:09;;;;;;;3.80;3.40;;;18.50;99.90;;;;;;5090936;28;20212;-68
2021/04/21 11:05:47;;;;;;;5.30;3.28;;;18.60;99.90;;;;;;5083650;28;20202;-69
2021/04/21 11:08:16;;;;;;;11.20;3.33;;;18.40;99.90;;;;;;5059323;28;20595;-68
2021/04/21 11:10:50;;;;;;;5.00;2.65;;;18.70;99.90;;;;;;5072394;28;20243;-69
2021/04/21 11:13:33;;;;;;;5.47;4.05;;;18.20;99.90;;;;;;5063034;28;20306;-68
2021/04/21 11:15:59;;;;;;;8.07;4.03;;;18.80;99.90;;;;;;5080001;28;20202;-68
2021/04/21 11:18:28;;;;;;;6.93;3.60;;;18.90;99.90;;;;;;5085738;28;20209;-68
2021/04/21 11:20:59;;;;;;;4.03;3.17;;;19.10;99.90;;;;;;5079073;28;20293;-67
2021/04/21 11:23:55;;;;;;;4.80;2.83;;;19.70;99.90;;;;;;5062108;28;20214;-67
2021/04/21 11:26:43;;;;;;;4.07;3.00;;;19.30;99.90;;;;;;5074714;28;20289;-69
2021/04/21 11:29:13;;;;;;;2.97;2.70;;;19.40;99.90;;;;;;5076125;28;20222;-68
2021/04/21 11:32:13;;;;;;;2.97;2.70;;;19.70;99.90;;;;;;5061975;28;20248;-68
2021/04/21 11:34:41;;;;;;;3.15;2.50;;;19.40;99.90;;;;;;5064079;28;20617;-71
2021/04/21 11:37:09;;;;;;;2.85;2.33;;;19.20;99.90;;;;;;5071569;28;20673;-70
2021/04/21 11:40:01;;;;;;;3.05;1.95;;;19.50;99.90;;;;;;5068254;28;20260;-70
2021/04/21 11:42:33;;;;;;;5.80;2.47;;;19.60;99.90;;;;;;5061829;28;20666;-68
2021/04/21 11:45:19;;;;;;;1.88;1.70;;;19.80;99.90;;;;;;5073486;28;20206;-69
2021/04/21 11:47:47;;;;;;;3.78;2.70;;;20.50;99.90;;;;;;5061958;28;20214;-70
2021/04/21 11:50:22;;;;;;;2.47;2.28;;;20.20;99.90;;;;;;5079551;28;20209;-68
2021/04/21 11:52:56;;;;;;;2.42;1.95;;;19.60;99.90;;;;;;5071267;28;20271;-70
2021/04/21 11:55:29;;;;;;;1.80;1.50;;;19.70;99.90;;;;;;5078449;28;20278;-70
2021/04/21 11:57:57;;;;;;;2.47;2.28;;;19.70;99.90;;;;;;5076505;28;20224;-71
2021/04/21 12:00:28;;;;;;;7.30;2.92;;;19.80;99.90;;;;;;5084373;28;20220;-71
2021/04/21 12:02:55;;;;;;;3.95;2.08;;;19.90;99.90;;;;;;5061130;28;20746;-71
2021/04/21 12:05:27;;;;;;;4.75;2.30;;;19.60;99.90;;;;;;5074503;28;20233;-70
2021/04/21 12:07:57;;;;;;;2.60;2.05;;;19.40;99.90;;;;;;5073060;28;20741;-71
2021/04/21 12:10:25;;;;;;;2.97;2.25;;;19.90;99.90;;;;;;5074815;28;20575;-71
2021/04/21 12:12:51;;;;;;;2.92;2.17;;;20.00;99.90;;;;;;5077689;28;20225;-70
2021/04/21 12:15:19;;;;;;;3.40;2.45;;;19.90;99.90;;;;;;5065927;28;20248;-70
2021/04/21 12:17:57;;;;;;;4.28;3.03;;;19.60;99.90;;;;;;5076468;28;20209;-70
2021/04/21 12:20:27;;;;;;;2.85;2.65;;;19.10;99.90;;;;;;5074163;28;20670;-69
2021/04/21 12:22:54;;;;;;;2.38;2.17;;;19.20;99.90;;;;;;5075719;28;20241;-72
2021/04/21 12:25:23;;;;;;;3.33;2.00;;;20.10;99.90;;;;;;5075951;28;20297;-73
2021/04/21 12:27:52;;;;;;;3.40;3.08;;;20.20;99.90;;;;;;5076220;28;20242;-72
2021/04/21 12:30:23;;;;;;;3.45;3.15;;;20.50;99.90;;;;;;5075899;28;20590;-72
2021/04/21 12:32:51;;;;;;;2.95;2.72;;;20.30;99.90;;;;;;5076077;28;20295;-70
2021/04/21 12:35:19;;;;;;;5.65;3.25;;;20.20;99.90;;;;;;5076204;28;20206;-69
2021/04/21 12:37:55;;;;;;;4.22;2.45;;;20.60;99.90;;;;;;5076643;28;20213;-71
2021/04/21 12:40:25;;;;;;;3.13;2.58;;;20.40;99.90;;;;;;5078852;28;20205;-71
2021/04/21 12:42:52;;;;;;;2.85;2.20;;;19.70;99.90;;;;;;5076408;28;20221;-67
2021/04/21 12:45:28;;;;;;;3.20;2.42;;;19.50;99.90;;;;;;5078684;28;20406;-70
2021/04/21 12:47:55;;;;;;;2.88;2.58;;;19.40;99.90;;;;;;5077324;28;20327;-68
2021/04/21 12:50:31;;;;;;;5.95;2.65;;;19.60;99.90;;;;;;5078616;28;20205;-67
2021/04/21 12:53:14;;;;;;;4.65;1.90;;;19.30;99.90;;;;;;5075999;28;20314;-68
2021/04/21 12:55:41;;;;;;;2.40;2.15;;;18.90;99.90;;;;;;5076546;28;20681;-68
2021/04/21 12:58:08;;;;;;;2.60;2.40;;;18.80;99.90;;;;;;5083973;28;20735;-69
2021/04/21 13:00:35;;;;;;;6.78;2.40;;;19.10;99.90;;;;;;5074687;28;20233;-67
2021/04/21 13:03:03;;;;;;;2.85;2.47;;;19.00;99.90;;;;;;5074186;28;20211;-70
2021/04/21 13:05:50;;;;;;;2.05;1.75;;;19.00;99.90;;;;;;5065788;28;20260;-67
2021/04/21 13:08:22;;;;;;;2.80;2.60;;;19.20;99.90;;;;;;5069443;28;20218;-69
2021/04/21 13:10:50;;;;;;;2.53;2.00;;;19.40;99.90;;;;;;5055861;28;20215;-68
2021/04/21 13:13:28;;;;;;;5.25;2.25;;;18.90;99.90;;;;;;5068399;28;20229;-70
2021/04/21 13:15:58;;;;;;;4.45;1.63;;;18.80;99.90;;;;;;5086135;28;20201;-71
2021/04/21 13:18:35;;;;;;;3.00;2.22;;;18.70;99.90;;;;;;5091188;28;20673;-69